Time;durP1;ratioP1;P1;durP2;ratioP2;P2;SDS_P1;SDS_P2;PMS_P1;PMS_P2;Temp;Humidity;BMP_temperature;BMP_pressure;BME280_temperature;BME280_humidity;BME280_pressure;Samples;Min_cycle;Max_cycle;Signal;HPM_P1;HPM_P2
2022/01/30 00:00:35;;;;;;;2.25;1.65;;;;;;;;;;5005988;28;20022;-53
2022/01/30 00:03:00;;;;;;;3.40;2.10;;;;;;;;;;5005364;28;20112;-51
2022/01/30 00:05:27;;;;;;;3.47;1.87;;;;;;;;;;5005150;28;20712;-51
2022/01/30 00:07:52;;;;;;;3.10;2.00;;;;;;;;;;5005235;28;20384;-52
2022/01/30 00:10:18;;;;;;;2.38;1.75;;;;;;;;;;5005195;28;20183;-52
2022/01/30 00:12:53;;;;;;;2.88;1.65;;;;;;;;;;5005056;28;20033;-52
2022/01/30 00:15:24;;;;;;;2.33;1.60;;;;;;;;;;5005346;28;20073;-51
2022/01/30 00:18:05;;;;;;;;;;;;;;;;;;5005735;28;20834;-51
2022/01/30 00:20:33;;;;;;;4.00;2.30;;;;;;;;;;5005228;28;19936;-51
2022/01/30 00:23:23;;;;;;;2.40;1.80;;;;;;;;;;5004241;28;20030;-52
2022/01/30 00:25:53;;;;;;;3.08;1.80;;;;;;;;;;5004480;28;20032;-51
2022/01/30 00:28:21;;;;;;;2.72;1.70;;;;;;;;;;5004112;28;20310;-52
2022/01/30 00:30:46;;;;;;;2.88;1.90;;;;;;;;;;5004354;28;20121;-51
2022/01/30 00:33:11;;;;;;;3.00;1.60;;;;;;;;;;5004368;28;20064;-50
2022/01/30 00:35:37;;;;;;;2.87;2.00;;;;;;;;;;5004205;28;20515;-51
2022/01/30 00:38:03;;;;;;;3.03;1.85;;;;;;;;;;5003997;28;20744;-52
2022/01/30 00:40:28;;;;;;;2.85;1.77;;;;;;;;;;5004076;28;20026;-52
2022/01/30 00:42:53;;;;;;;3.00;2.07;;;;;;;;;;5004266;28;20018;-52
2022/01/30 00:45:19;;;;;;;3.53;2.20;;;;;;;;;;5003934;28;20280;-50
2022/01/30 00:47:44;;;;;;;2.70;1.75;;;;;;;;;;4999279;28;20839;-51
2022/01/30 00:50:09;;;;;;;3.27;1.87;;;;;;;;;;4999894;28;20117;-50
2022/01/30 00:52:34;;;;;;;2.58;2.03;;;;;;;;;;5003583;28;20288;-52
2022/01/30 00:55:00;;;;;;;2.60;1.60;;;;;;;;;;5003657;28;20026;-51
2022/01/30 00:57:25;;;;;;;3.22;2.22;;;;;;;;;;5003664;28;20535;-52
2022/01/30 00:59:50;;;;;;;3.33;2.03;;;;;;;;;;5003621;28;20435;-49
2022/01/30 01:02:16;;;;;;;2.97;1.90;;;;;;;;;;5003554;28;20474;-52
2022/01/30 01:04:41;;;;;;;2.65;2.13;;;;;;;;;;5002271;28;20025;-51
2022/01/30 01:07:14;;;;;;;2.58;1.73;;;;;;;;;;5003295;28;20131;-52
2022/01/30 01:09:40;;;;;;;3.15;1.85;;;;;;;;;;5003497;28;20046;-52
2022/01/30 01:26:05;;;;;;;2.97;1.85;;;;;;;;;;5005352;28;20109;-52
2022/01/30 01:28:30;;;;;;;3.37;2.07;;;;;;;;;;5018286;28;20199;-51
2022/01/30 01:30:55;;;;;;;4.03;1.90;;;;;;;;;;5008965;28;20314;-51
2022/01/30 01:33:23;;;;;;;2.53;1.70;;;;;;;;;;5003055;28;20042;-51
2022/01/30 01:35:48;;;;;;;2.83;1.80;;;;;;;;;;5003027;28;20049;-52
2022/01/30 01:38:15;;;;;;;3.20;1.58;;;;;;;;;;5003180;28;20506;-51
2022/01/30 01:40:41;;;;;;;3.05;1.60;;;;;;;;;;5003128;28;20459;-52
2022/01/30 01:43:06;;;;;;;2.38;1.70;;;;;;;;;;5002727;28;20063;-52
2022/01/30 01:45:36;;;;;;;2.63;1.60;;;;;;;;;;5002855;28;20053;-51
2022/01/30 01:48:08;;;;;;;3.15;1.60;;;;;;;;;;5002912;28;20034;-51
2022/01/30 01:50:39;;;;;;;2.85;1.60;;;;;;;;;;5002590;28;20057;-52
2022/01/30 01:53:08;;;;;;;2.83;1.67;;;;;;;;;;5002793;28;20097;-52
2022/01/30 01:55:33;;;;;;;2.80;1.67;;;;;;;;;;5003081;28;20084;-50
2022/01/30 01:57:59;;;;;;;4.15;1.90;;;;;;;;;;5002898;28;20034;-51
2022/01/30 02:00:24;;;;;;;3.33;2.00;;;;;;;;;;5002641;28;21218;-51
2022/01/30 02:02:49;;;;;;;2.30;1.60;;;;;;;;;;5002574;28;20888;-51
2022/01/30 02:05:14;;;;;;;3.13;1.73;;;;;;;;;;5002720;28;20041;-51
2022/01/30 02:08:25;;;;;;;2.83;1.67;;;;;;;;;;5001191;28;20372;-51
2022/01/30 02:13:11;;;;;;;3.60;1.65;;;;;;;;;;5002462;28;20033;-51
2022/01/30 02:24:03;;;;;;;3.47;1.83;;;;;;;;;;5002285;28;20033;-50
2022/01/30 02:26:34;;;;;;;2.92;1.92;;;;;;;;;;5002124;28;20037;-50
2022/01/30 02:28:59;;;;;;;2.95;1.58;;;;;;;;;;5002211;28;20030;-52
2022/01/30 02:31:24;;;;;;;3.07;1.90;;;;;;;;;;5002123;28;20490;-50
2022/01/30 02:33:49;;;;;;;2.60;1.67;;;;;;;;;;4997560;28;20807;-51
2022/01/30 02:36:15;;;;;;;3.75;1.77;;;;;;;;;;4998197;28;20331;-52
2022/01/30 02:38:40;;;;;;;3.17;1.50;;;;;;;;;;5004933;28;20048;-51
2022/01/30 02:41:06;;;;;;;4.03;1.83;;;;;;;;;;5021948;28;20022;-51
2022/01/30 02:43:37;;;;;;;2.50;1.65;;;;;;;;;;5021989;28;20298;-52
2022/01/30 02:48:59;;;;;;;3.38;1.90;;;;;;;;;;4990985;28;20525;-50
2022/01/30 02:51:33;;;;;;;3.03;1.80;;;;;;;;;;5002220;28;20037;-51
2022/01/30 02:54:05;;;;;;;2.45;1.67;;;;;;;;;;5002071;28;20014;-51
2022/01/30 02:56:31;;;;;;;3.78;1.90;;;;;;;;;;5002170;28;20112;-51
2022/01/30 02:58:56;;;;;;;3.38;1.77;;;;;;;;;;5002034;28;20563;-51
2022/01/30 03:01:21;;;;;;;3.45;2.00;;;;;;;;;;5002250;28;20021;-50
2022/01/30 03:03:46;;;;;;;2.97;1.90;;;;;;;;;;5001842;28;20434;-50
2022/01/30 03:06:12;;;;;;;3.70;1.77;;;;;;;;;;5001642;28;20292;-51
2022/01/30 03:08:37;;;;;;;2.80;1.57;;;;;;;;;;5001825;28;20289;-50
2022/01/30 03:11:02;;;;;;;2.97;1.87;;;;;;;;;;5001959;28;20014;-51
2022/01/30 03:13:28;;;;;;;3.20;1.65;;;;;;;;;;5002042;28;20273;-50
2022/01/30 03:15:53;;;;;;;3.15;1.58;;;;;;;;;;5001857;28;20022;-50
2022/01/30 03:18:18;;;;;;;2.92;1.65;;;;;;;;;;5001850;28;20037;-51
2022/01/30 03:20:43;;;;;;;2.53;1.70;;;;;;;;;;5001424;28;20008;-52
2022/01/30 03:23:09;;;;;;;3.17;1.65;;;;;;;;;;5005354;28;20351;-51
2022/01/30 03:25:34;;;;;;;2.80;1.77;;;;;;;;;;5005437;28;20246;-52
2022/01/30 03:28:01;;;;;;;2.97;1.90;;;;;;;;;;5005214;28;20026;-51
2022/01/30 03:30:29;;;;;;;3.40;1.88;;;;;;;;;;5005307;28;20030;-52
2022/01/30 03:32:55;;;;;;;3.28;1.50;;;;;;;;;;5005242;28;20075;-52
2022/01/30 03:35:20;;;;;;;4.10;1.98;;;;;;;;;;5005172;28;20030;-51
2022/01/30 03:37:45;;;;;;;3.38;1.73;;;;;;;;;;5005350;28;20076;-51
2022/01/30 03:40:11;;;;;;;2.80;1.80;;;;;;;;;;5005106;28;20053;-50
2022/01/30 03:42:36;;;;;;;3.53;1.80;;;;;;;;;;5005246;28;20040;-52
2022/01/30 03:45:01;;;;;;;3.37;1.83;;;;;;;;;;5003544;28;20014;-51
2022/01/30 03:47:27;;;;;;;3.70;1.92;;;;;;;;;;5004946;28;20360;-52
2022/01/30 03:49:52;;;;;;;3.67;1.90;;;;;;;;;;5005200;28;20107;-52
2022/01/30 03:52:17;;;;;;;3.58;1.88;;;;;;;;;;5005054;28;20269;-50
2022/01/30 03:54:43;;;;;;;3.45;1.77;;;;;;;;;;5004896;28;20032;-52
2022/01/30 03:57:08;;;;;;;3.05;1.80;;;;;;;;;;5005162;28;20299;-52
2022/01/30 03:59:33;;;;;;;4.85;2.33;;;;;;;;;;5004804;28;20026;-52
2022/01/30 04:01:59;;;;;;;3.17;1.88;;;;;;;;;;5004987;28;20037;-53
2022/01/30 04:04:24;;;;;;;3.17;2.13;;;;;;;;;;5004409;28;20025;-50
2022/01/30 04:06:49;;;;;;;4.07;2.23;;;;;;;;;;5004770;28;20042;-50
2022/01/30 04:09:15;;;;;;;3.63;1.70;;;;;;;;;;5003189;28;20315;-50
2022/01/30 04:11:40;;;;;;;4.10;2.08;;;;;;;;;;5004310;28;20562;-50
2022/01/30 04:14:05;;;;;;;3.67;2.47;;;;;;;;;;5004256;28;20025;-54
2022/01/30 04:16:31;;;;;;;3.58;1.73;;;;;;;;;;5004131;28;20022;-52
2022/01/30 04:18:57;;;;;;;3.85;1.70;;;;;;;;;;5004857;28;20514;-51
2022/01/30 04:21:23;;;;;;;3.25;2.00;;;;;;;;;;5004643;28;20018;-52
2022/01/30 04:23:48;;;;;;;3.08;1.75;;;;;;;;;;5004580;28;20076;-51
2022/01/30 04:26:13;;;;;;;3.47;1.98;;;;;;;;;;5004385;28;20487;-51
2022/01/30 04:28:38;;;;;;;4.30;2.17;;;;;;;;;;5004110;28;20037;-51
2022/01/30 04:31:04;;;;;;;3.70;1.90;;;;;;;;;;5004420;28;20272;-51
2022/01/30 04:33:29;;;;;;;3.55;2.00;;;;;;;;;;5003979;28;20034;-51
2022/01/30 04:35:55;;;;;;;3.53;2.00;;;;;;;;;;5004373;28;20025;-53
2022/01/30 04:57:38;;;;;;;2.92;1.90;;;;;;;;;;5004292;28;20496;-51
2022/01/30 05:02:57;;;;;;;3.08;1.95;;;;;;;;;;5003843;28;20036;-52
2022/01/30 05:06:11;;;;;;;3.45;2.05;;;;;;;;;;5003411;28;20068;-52
2022/01/30 05:08:09;;;;;;;3.70;2.20;;;;;;;;;;5009399;28;20180;-51
2022/01/30 05:10:34;;;;;;;3.40;1.92;;;;;;;;;;5003370;28;20124;-51
2022/01/30 05:13:02;;;;;;;3.78;2.28;;;;;;;;;;5003338;28;20424;-51
2022/01/30 05:15:28;;;;;;;3.63;2.10;;;;;;;;;;5003425;28;20069;-51
2022/01/30 05:17:53;;;;;;;4.38;2.22;;;;;;;;;;5003492;28;20029;-51
2022/01/30 05:20:19;;;;;;;2.85;1.73;;;;;;;;;;5003720;28;20095;-51
2022/01/30 05:22:44;;;;;;;4.47;2.08;;;;;;;;;;5003317;28;20405;-51
2022/01/30 05:25:10;;;;;;;3.95;2.17;;;;;;;;;;5003115;28;20068;-51
2022/01/30 05:27:35;;;;;;;3.15;2.05;;;;;;;;;;5003244;28;20026;-51
2022/01/30 05:30:01;;;;;;;3.80;2.20;;;;;;;;;;5003157;28;20045;-52
2022/01/30 05:32:26;;;;;;;3.42;1.92;;;;;;;;;;5002901;28;20029;-52
2022/01/30 05:34:51;;;;;;;3.50;2.10;;;;;;;;;;5003087;28;20103;-50
2022/01/30 05:37:17;;;;;;;3.60;2.10;;;;;;;;;;5003158;28;20037;-51
2022/01/30 05:39:42;;;;;;;3.75;2.33;;;;;;;;;;5003058;28;20022;-51
2022/01/30 05:42:08;;;;;;;4.30;2.05;;;;;;;;;;5002843;28;20030;-51
2022/01/30 05:44:55;;;;;;;3.33;1.88;;;;;;;;;;5001927;28;20070;-51
2022/01/30 05:47:28;;;;;;;4.75;2.40;;;;;;;;;;5002828;28;20034;-51
2022/01/30 05:49:53;;;;;;;3.80;2.05;;;;;;;;;;5002983;28;20026;-50
2022/01/30 05:52:19;;;;;;;3.42;2.20;;;;;;;;;;5002785;28;20538;-50
2022/01/30 05:54:44;;;;;;;3.30;1.92;;;;;;;;;;5002687;28;20025;-51
2022/01/30 05:57:09;;;;;;;2.97;2.00;;;;;;;;;;5002833;28;20025;-51
2022/01/30 05:59:34;;;;;;;4.13;2.10;;;;;;;;;;5002812;28;20021;-51
2022/01/30 06:01:59;;;;;;;3.17;1.87;;;;;;;;;;5002821;28;20388;-50
2022/01/30 06:04:25;;;;;;;3.15;1.67;;;;;;;;;;5002619;28;20502;-51
2022/01/30 06:06:52;;;;;;;3.10;1.93;;;;;;;;;;5002038;28;20297;-51
2022/01/30 06:11:43;;;;;;;2.97;2.00;;;;;;;;;;5002866;28;20022;-51
2022/01/30 06:14:08;;;;;;;3.13;2.08;;;;;;;;;;5002634;28;20021;-52
2022/01/30 06:16:34;;;;;;;2.97;2.25;;;;;;;;;;5002373;28;20328;-52
2022/01/30 06:18:59;;;;;;;3.37;2.00;;;;;;;;;;5002598;28;20025;-52
2022/01/30 06:21:24;;;;;;;2.90;1.85;;;;;;;;;;5002249;28;20264;-51
2022/01/30 06:23:49;;;;;;;3.30;1.97;;;;;;;;;;5002273;28;20029;-52
2022/01/30 06:26:15;;;;;;;4.07;2.63;;;;;;;;;;5002337;28;20269;-53
2022/01/30 06:28:40;;;;;;;3.00;1.90;;;;;;;;;;5001929;28;20335;-53
2022/01/30 06:31:05;;;;;;;3.70;2.20;;;;;;;;;;5002415;28;20279;-54
2022/01/30 06:33:31;;;;;;;3.67;2.20;;;;;;;;;;5002131;28;20021;-52
2022/01/30 06:35:56;;;;;;;3.73;2.23;;;;;;;;;;5002178;28;20030;-52
2022/01/30 06:38:21;;;;;;;3.00;2.10;;;;;;;;;;5002318;28;20674;-52
2022/01/30 06:40:46;;;;;;;3.90;2.37;;;;;;;;;;5001758;28;20334;-51
2022/01/30 06:43:12;;;;;;;4.03;2.27;;;;;;;;;;5002214;28;20506;-53
2022/01/30 06:45:37;;;;;;;3.37;2.63;;;;;;;;;;5002306;28;20514;-55
2022/01/30 06:48:02;;;;;;;4.55;2.45;;;;;;;;;;5002186;28;20328;-52
2022/01/30 06:50:27;;;;;;;3.63;2.42;;;;;;;;;;5002140;28;20476;-53
2022/01/30 06:52:53;;;;;;;3.37;2.17;;;;;;;;;;5000421;28;20446;-52
2022/01/30 06:55:18;;;;;;;3.00;1.90;;;;;;;;;;5002422;28;20260;-52
2022/01/30 06:57:44;;;;;;;4.17;2.27;;;;;;;;;;5005113;28;20408;-52
2022/01/30 07:00:09;;;;;;;3.97;2.40;;;;;;;;;;5006083;28;20273;-51
2022/01/30 07:02:34;;;;;;;3.35;2.53;;;;;;;;;;5005904;28;20018;-51
2022/01/30 07:05:00;;;;;;;4.17;2.10;;;;;;;;;;5005814;28;20419;-52
2022/01/30 07:07:25;;;;;;;3.77;2.30;;;;;;;;;;5005706;28;20320;-53
2022/01/30 07:09:50;;;;;;;4.43;2.60;;;;;;;;;;5006173;28;20280;-53
2022/01/30 07:12:16;;;;;;;4.60;2.65;;;;;;;;;;5005833;28;20338;-52
2022/01/30 07:14:41;;;;;;;3.77;2.40;;;;;;;;;;5005706;28;20549;-52
2022/01/30 07:17:06;;;;;;;4.27;2.60;;;;;;;;;;5005595;28;20470;-51
2022/01/30 07:19:31;;;;;;;3.78;2.47;;;;;;;;;;5005581;28;20862;-52
2022/01/30 07:21:56;;;;;;;4.00;2.50;;;;;;;;;;5005650;28;20399;-52
2022/01/30 07:24:22;;;;;;;3.80;2.20;;;;;;;;;;5005586;28;20041;-52
2022/01/30 07:26:47;;;;;;;3.87;2.50;;;;;;;;;;5005195;28;20037;-51
2022/01/30 07:29:12;;;;;;;3.60;2.73;;;;;;;;;;5005364;28;20289;-51
2022/01/30 07:31:37;;;;;;;4.30;2.83;;;;;;;;;;5005457;28;20269;-51
2022/01/30 07:34:03;;;;;;;4.68;2.88;;;;;;;;;;5005679;28;20076;-51
2022/01/30 07:36:28;;;;;;;4.05;2.50;;;;;;;;;;5005111;28;20511;-52
2022/01/30 07:38:54;;;;;;;4.00;2.63;;;;;;;;;;5005373;28;20102;-53
2022/01/30 07:41:19;;;;;;;3.67;2.45;;;;;;;;;;5005473;28;20030;-52
2022/01/30 07:43:44;;;;;;;4.53;2.75;;;;;;;;;;5005151;28;20386;-51
2022/01/30 07:46:10;;;;;;;3.53;2.50;;;;;;;;;;5005195;28;20151;-52
2022/01/30 07:48:35;;;;;;;3.53;2.50;;;;;;;;;;5004886;28;20092;-52
2022/01/30 07:51:00;;;;;;;4.10;2.92;;;;;;;;;;5005096;28;20310;-52
2022/01/30 07:53:26;;;;;;;4.07;2.92;;;;;;;;;;5004978;28;20059;-52
2022/01/30 07:55:51;;;;;;;3.60;2.38;;;;;;;;;;4999972;28;20022;-52
2022/01/30 07:58:16;;;;;;;3.63;2.50;;;;;;;;;;4988618;28;20029;-51
2022/01/30 08:00:41;;;;;;;3.58;2.58;;;;;;;;;;4987874;28;20108;-51
2022/01/30 08:03:07;;;;;;;3.60;2.47;;;;;;;;;;4987474;28;20026;-51
2022/01/30 08:05:32;;;;;;;4.05;2.90;;;;;;;;;;4986312;28;20393;-51
2022/01/30 08:07:57;;;;;;;4.73;2.87;;;;;;;;;;4985584;28;20384;-51
2022/01/30 08:10:22;;;;;;;4.47;2.70;;;;;;;;;;4986461;28;20035;-51
2022/01/30 08:12:48;;;;;;;4.28;2.85;;;;;;;;;;4991078;28;20778;-51
2022/01/30 08:15:13;;;;;;;2.80;2.50;;;;;;;;;;4989161;28;20030;-51
2022/01/30 08:17:39;;;;;;;5.00;2.60;;;;;;;;;;4988488;28;20277;-51
2022/01/30 08:20:05;;;;;;;3.95;2.75;;;;;;;;;;4986477;28;20672;-52
2022/01/30 08:22:31;;;;;;;4.70;2.97;;;;;;;;;;4985980;28;20022;-53
2022/01/30 08:24:56;;;;;;;4.63;2.70;;;;;;;;;;4989887;28;20021;-52
2022/01/30 08:27:22;;;;;;;3.75;2.63;;;;;;;;;;5004181;28;20028;-52
2022/01/30 08:29:47;;;;;;;5.70;2.53;;;;;;;;;;5004164;28;20431;-52
2022/01/30 08:32:13;;;;;;;3.70;2.43;;;;;;;;;;5004016;28;20418;-52
2022/01/30 08:34:38;;;;;;;4.15;2.83;;;;;;;;;;5003804;28;20300;-51
2022/01/30 08:37:04;;;;;;;3.28;2.67;;;;;;;;;;5003857;28;20022;-51
2022/01/30 08:39:29;;;;;;;4.17;2.63;;;;;;;;;;5004042;28;20107;-51
2022/01/30 08:41:54;;;;;;;4.35;2.53;;;;;;;;;;5003799;28;20276;-52
2022/01/30 08:44:20;;;;;;;5.90;2.87;;;;;;;;;;5003706;28;20433;-51
2022/01/30 08:46:45;;;;;;;3.60;2.40;;;;;;;;;;5003151;28;20331;-51
2022/01/30 08:49:11;;;;;;;5.27;2.33;;;;;;;;;;5002889;28;20848;-52
2022/01/30 08:51:37;;;;;;;3.97;2.38;;;;;;;;;;5003357;28;20018;-51
2022/01/30 08:54:02;;;;;;;3.00;2.50;;;;;;;;;;5002986;28;20026;-51
2022/01/30 08:56:28;;;;;;;4.30;2.67;;;;;;;;;;4997809;28;20042;-51
2022/01/30 08:58:54;;;;;;;5.53;2.10;;;;;;;;;;4989002;28;20504;-50
2022/01/30 09:01:19;;;;;;;4.82;2.53;;;;;;;;;;4995203;28;20064;-51
2022/01/30 09:03:44;;;;;;;4.10;2.43;;;;;;;;;;5003328;28;20562;-52
2022/01/30 09:06:09;;;;;;;3.83;2.63;;;;;;;;;;5003116;28;20570;-51
2022/01/30 09:08:35;;;;;;;3.88;2.33;;;;;;;;;;5003305;28;20076;-50
2022/01/30 09:11:00;;;;;;;4.10;2.70;;;;;;;;;;5003514;28;20053;-51
2022/01/30 09:13:25;;;;;;;4.37;2.80;;;;;;;;;;5003333;28;20129;-50
2022/01/30 09:15:56;;;;;;;3.42;2.40;;;;;;;;;;5003576;28;20064;-52
2022/01/30 09:18:21;;;;;;;3.92;2.58;;;;;;;;;;5003665;28;20088;-52
2022/01/30 09:20:46;;;;;;;3.93;2.70;;;;;;;;;;5001826;28;20042;-51
2022/01/30 09:23:13;;;;;;;4.82;2.50;;;;;;;;;;5002827;28;20037;-52
2022/01/30 09:25:38;;;;;;;3.88;2.20;;;;;;;;;;5002893;28;20424;-52
2022/01/30 09:28:04;;;;;;;4.10;2.65;;;;;;;;;;5003236;28;20052;-51
2022/01/30 09:30:29;;;;;;;6.07;2.50;;;;;;;;;;5003188;28;20104;-54
2022/01/30 09:32:54;;;;;;;4.43;2.60;;;;;;;;;;5002952;28;20356;-52
2022/01/30 09:35:19;;;;;;;5.27;2.70;;;;;;;;;;5003182;28;20026;-51
2022/01/30 09:37:45;;;;;;;5.53;2.70;;;;;;;;;;5003172;28;20037;-51
2022/01/30 09:40:10;;;;;;;6.40;2.73;;;;;;;;;;4998467;28;20040;-50
2022/01/30 09:42:35;;;;;;;5.35;3.13;;;;;;;;;;4999287;28;20836;-51
2022/01/30 09:45:04;;;;;;;5.53;2.97;;;;;;;;;;5003139;28;20076;-52
2022/01/30 09:47:29;;;;;;;5.32;3.22;;;;;;;;;;5003003;28;20053;-52
2022/01/30 09:49:54;;;;;;;6.38;2.80;;;;;;;;;;5002913;28;20599;-51
2022/01/30 09:52:19;;;;;;;5.80;3.25;;;;;;;;;;5001385;28;20433;-53
2022/01/30 09:54:45;;;;;;;5.35;2.83;;;;;;;;;;5002625;28;20034;-52
2022/01/30 09:57:10;;;;;;;7.10;3.40;;;;;;;;;;5002889;28;20033;-54
2022/01/30 09:59:35;;;;;;;8.77;3.57;;;;;;;;;;5002613;28;20028;-53
2022/01/30 10:02:04;;;;;;;6.47;3.17;;;;;;;;;;5002437;28;20018;-52
2022/01/30 10:04:29;;;;;;;6.93;3.90;;;;;;;;;;5002472;28;20269;-53
2022/01/30 10:06:57;;;;;;;5.90;3.67;;;;;;;;;;5002350;28;20131;-52
2022/01/30 10:09:27;;;;;;;9.60;3.80;;;;;;;;;;5002509;28;20041;-53
2022/01/30 10:12:09;;;;;;;8.05;3.38;;;;;;;;;;5002769;28;20029;-52
2022/01/30 10:14:34;;;;;;;7.70;3.58;;;;;;;;;;5002614;28;20511;-52
2022/01/30 10:16:59;;;;;;;14.90;4.33;;;;;;;;;;5002570;28;20053;-52
2022/01/30 10:19:24;;;;;;;8.23;3.57;;;;;;;;;;5001138;28;20064;-52
2022/01/30 10:22:06;;;;;;;16.30;8.43;;;;;;;;;;5002529;28;20061;-54
2022/01/30 10:24:31;;;;;;;12.13;5.65;;;;;;;;;;5002503;28;20029;-52
2022/01/30 10:26:59;;;;;;;12.43;5.63;;;;;;;;;;5000812;28;20030;-52
2022/01/30 10:29:25;;;;;;;9.05;4.82;;;;;;;;;;5002450;28;20042;-52
2022/01/30 10:31:57;;;;;;;8.80;4.13;;;;;;;;;;5002163;28;20025;-51
2022/01/30 10:34:22;;;;;;;8.38;4.72;;;;;;;;;;5002619;28;20436;-51
2022/01/30 10:36:47;;;;;;;10.20;4.33;;;;;;;;;;5002284;28;20034;-52
2022/01/30 10:39:16;;;;;;;7.85;4.20;;;;;;;;;;5002345;28;20021;-52
2022/01/30 10:41:45;;;;;;;9.63;4.18;;;;;;;;;;5002119;28;20018;-57
2022/01/30 10:44:10;;;;;;;7.07;4.55;;;;;;;;;;5003050;28;20076;-51
2022/01/30 10:46:38;;;;;;;8.87;4.20;;;;;;;;;;4999265;28;20050;-52
2022/01/30 10:49:10;;;;;;;8.73;4.22;;;;;;;;;;5001601;28;20045;-52
2022/01/30 10:51:36;;;;;;;6.95;3.95;;;;;;;;;;4998613;28;20038;-51
2022/01/30 10:54:05;;;;;;;10.67;5.00;;;;;;;;;;4984151;28;20513;-51
2022/01/30 10:56:30;;;;;;;12.10;5.05;;;;;;;;;;4982942;28;20556;-53
2022/01/30 10:59:11;;;;;;;11.63;5.13;;;;;;;;;;4985270;28;20104;-53
2022/01/30 11:01:37;;;;;;;11.05;5.38;;;;;;;;;;4990571;28;20013;-52
2022/01/30 11:04:02;;;;;;;8.95;5.18;;;;;;;;;;4992198;28;20493;-52
2022/01/30 11:06:28;;;;;;;13.52;5.50;;;;;;;;;;4996029;28;20540;-52
2022/01/30 11:08:54;;;;;;;13.35;5.55;;;;;;;;;;5002002;28;20054;-52
2022/01/30 11:11:40;;;;;;;11.05;5.05;;;;;;;;;;5000524;28;20021;-52
2022/01/30 11:19:15;;;;;;;14.23;5.63;;;;;;;;;;5002477;28;20037;-53
2022/01/30 11:21:41;;;;;;;14.10;6.13;;;;;;;;;;5001722;28;20025;-54
2022/01/30 11:24:06;;;;;;;10.90;5.25;;;;;;;;;;5001775;28;20026;-51
2022/01/30 11:26:31;;;;;;;9.60;5.55;;;;;;;;;;5001969;28;20026;-51
2022/01/30 11:28:57;;;;;;;8.93;4.83;;;;;;;;;;5001165;28;20045;-53
2022/01/30 11:31:22;;;;;;;10.00;4.70;;;;;;;;;;5001873;28;20277;-51
2022/01/30 11:33:47;;;;;;;10.88;4.97;;;;;;;;;;5001185;28;20707;-52
2022/01/30 11:36:13;;;;;;;9.17;4.40;;;;;;;;;;5000487;28;20092;-53
2022/01/30 11:38:39;;;;;;;10.88;5.30;;;;;;;;;;5001879;28;20026;-54
2022/01/30 11:41:14;;;;;;;13.00;5.00;;;;;;;;;;5000422;28;20484;-54
2022/01/30 11:43:40;;;;;;;11.10;5.63;;;;;;;;;;5002944;28;20034;-53
2022/01/30 11:46:14;;;;;;;8.73;4.85;;;;;;;;;;5005301;28;20911;-53
2022/01/30 11:48:40;;;;;;;10.43;4.85;;;;;;;;;;5004748;28;20034;-53
2022/01/30 11:51:05;;;;;;;10.77;5.07;;;;;;;;;;5004690;28;20472;-52
2022/01/30 11:53:30;;;;;;;7.70;4.93;;;;;;;;;;5005085;28;20045;-49
2022/01/30 11:56:00;;;;;;;9.13;5.47;;;;;;;;;;5004933;28;20021;-51
2022/01/30 11:58:46;;;;;;;8.68;5.18;;;;;;;;;;5005346;28;20641;-52
2022/01/30 12:01:12;;;;;;;8.77;5.30;;;;;;;;;;5005192;28;20065;-53
2022/01/30 12:03:37;;;;;;;8.82;5.35;;;;;;;;;;5004090;28;20029;-52
2022/01/30 12:06:20;;;;;;;6.50;4.57;;;;;;;;;;5000701;28;20293;-52
2022/01/30 12:08:52;;;;;;;8.50;4.75;;;;;;;;;;5004506;28;20034;-51
2022/01/30 12:11:39;;;;;;;7.72;4.72;;;;;;;;;;5004887;28;20056;-53
2022/01/30 12:14:05;;;;;;;9.30;4.90;;;;;;;;;;5004878;28;20030;-52
2022/01/30 12:16:45;;;;;;;10.25;4.93;;;;;;;;;;5004885;28;20407;-52
2022/01/30 12:19:12;;;;;;;9.63;4.78;;;;;;;;;;5004513;28;20096;-54
2022/01/30 12:21:37;;;;;;;9.68;4.93;;;;;;;;;;5004617;28;20054;-53
2022/01/30 12:24:21;;;;;;;8.63;5.00;;;;;;;;;;5004576;28;20184;-51
2022/01/30 12:26:50;;;;;;;9.85;4.90;;;;;;;;;;5004567;28;20034;-53
2022/01/30 12:29:33;;;;;;;7.65;4.45;;;;;;;;;;5004498;28;20045;-50
2022/01/30 12:32:00;;;;;;;7.72;4.95;;;;;;;;;;5004620;28;20567;-52
2022/01/30 12:34:26;;;;;;;8.02;4.45;;;;;;;;;;5002851;28;20712;-52
2022/01/30 12:36:54;;;;;;;8.50;5.03;;;;;;;;;;5004379;28;20026;-53
2022/01/30 12:39:22;;;;;;;10.32;4.90;;;;;;;;;;5004533;28;20057;-52
2022/01/30 12:41:47;;;;;;;9.32;5.32;;;;;;;;;;5004129;28;20057;-53
2022/01/30 12:44:14;;;;;;;10.95;5.45;;;;;;;;;;5004703;28;20555;-53
2022/01/30 12:46:46;;;;;;;10.32;5.57;;;;;;;;;;5004128;28;20037;-52
2022/01/30 12:49:11;;;;;;;12.02;5.75;;;;;;;;;;5004106;28;20494;-52
2022/01/30 12:51:37;;;;;;;9.27;5.00;;;;;;;;;;5004077;28;20030;-54
2022/01/30 12:54:03;;;;;;;9.25;5.43;;;;;;;;;;5003636;28;20502;-54
2022/01/30 12:56:28;;;;;;;11.65;5.55;;;;;;;;;;5001084;28;20096;-53
2022/01/30 12:58:54;;;;;;;11.15;5.47;;;;;;;;;;5003943;28;20025;-52
2022/01/30 13:01:23;;;;;;;12.88;5.57;;;;;;;;;;5002752;28;20026;-52
2022/01/30 13:03:59;;;;;;;15.82;8.48;;;;;;;;;;5002482;28;20401;-53
2022/01/30 13:06:34;;;;;;;13.80;7.13;;;;;;;;;;5001426;28;20064;-54
2022/01/30 13:08:59;;;;;;;9.93;5.93;;;;;;;;;;5002959;28;20754;-54
2022/01/30 13:11:24;;;;;;;9.47;5.60;;;;;;;;;;5003650;28;20029;-55
2022/01/30 13:13:55;;;;;;;8.63;5.23;;;;;;;;;;5003504;28;20786;-50
2022/01/30 13:16:20;;;;;;;8.45;4.80;;;;;;;;;;5003441;28;20356;-54
2022/01/30 13:18:45;;;;;;;13.88;7.68;;;;;;;;;;5019064;28;20125;-54
2022/01/30 13:21:11;;;;;;;10.32;6.32;;;;;;;;;;5022824;28;20033;-54
2022/01/30 13:23:36;;;;;;;11.23;6.00;;;;;;;;;;5022945;28;20083;-52
2022/01/30 13:26:02;;;;;;;10.33;5.87;;;;;;;;;;5013155;28;20913;-53
2022/01/30 13:28:27;;;;;;;10.15;5.85;;;;;;;;;;5002794;28;20841;-55
2022/01/30 13:30:54;;;;;;;10.10;6.00;;;;;;;;;;4998314;28;20081;-57
2022/01/30 13:33:19;;;;;;;11.60;6.30;;;;;;;;;;5003169;28;20399;-53
2022/01/30 13:35:45;;;;;;;9.60;6.33;;;;;;;;;;5003279;28;20117;-54
2022/01/30 13:38:10;;;;;;;13.50;6.53;;;;;;;;;;5002837;28;20284;-55
2022/01/30 13:40:44;;;;;;;9.13;5.33;;;;;;;;;;5000930;28;20038;-54
2022/01/30 13:43:16;;;;;;;12.00;5.95;;;;;;;;;;5002003;28;20269;-54
2022/01/30 13:48:06;;;;;;;9.70;5.23;;;;;;;;;;5003381;28;20755;-53
2022/01/30 13:50:41;;;;;;;10.00;6.10;;;;;;;;;;5002989;28;20648;-52
2022/01/30 13:53:07;;;;;;;10.82;5.80;;;;;;;;;;5002421;28;20025;-52
2022/01/30 13:55:33;;;;;;;10.23;6.00;;;;;;;;;;5002483;28;20105;-52
2022/01/30 13:57:58;;;;;;;9.73;5.80;;;;;;;;;;5002582;28;20165;-53
2022/01/30 14:00:24;;;;;;;10.88;6.07;;;;;;;;;;5002680;28;20061;-53
2022/01/30 14:02:59;;;;;;;8.45;4.85;;;;;;;;;;5002166;28;20033;-52
2022/01/30 14:05:31;;;;;;;7.88;5.25;;;;;;;;;;5001587;28;20076;-52
2022/01/30 14:07:57;;;;;;;8.80;6.10;;;;;;;;;;5002166;28;20026;-52
2022/01/30 14:10:22;;;;;;;8.63;5.38;;;;;;;;;;5002588;28;20044;-53
2022/01/30 14:12:49;;;;;;;9.52;4.78;;;;;;;;;;5002646;28;20018;-53
2022/01/30 14:15:17;;;;;;;7.38;5.25;;;;;;;;;;5002354;28;20033;-58
2022/01/30 14:17:43;;;;;;;7.97;4.93;;;;;;;;;;5002517;28;20065;-52
2022/01/30 14:20:11;;;;;;;7.53;5.30;;;;;;;;;;5002846;28;20061;-52
2022/01/30 14:22:36;;;;;;;8.10;4.85;;;;;;;;;;5002930;28;20116;-53
2022/01/30 14:25:03;;;;;;;8.17;5.30;;;;;;;;;;5004363;28;21720;-53
2022/01/30 14:27:29;;;;;;;8.02;4.78;;;;;;;;;;5002697;28;20315;-52
2022/01/30 14:29:54;;;;;;;9.40;5.20;;;;;;;;;;5000878;28;20029;-54
2022/01/30 14:32:23;;;;;;;8.00;5.13;;;;;;;;;;5002653;28;20092;-53
2022/01/30 14:34:48;;;;;;;8.73;5.00;;;;;;;;;;5002543;28;20125;-53
2022/01/30 14:37:14;;;;;;;7.95;5.00;;;;;;;;;;5002403;28;20117;-52
2022/01/30 14:39:39;;;;;;;7.53;4.85;;;;;;;;;;5002545;28;20022;-53
2022/01/30 14:42:05;;;;;;;7.70;4.85;;;;;;;;;;5002472;28;20030;-53
2022/01/30 14:44:31;;;;;;;6.82;4.45;;;;;;;;;;5002645;28;20022;-52
2022/01/30 14:46:56;;;;;;;8.30;4.72;;;;;;;;;;5002119;28;20029;-53
2022/01/30 14:49:21;;;;;;;7.57;4.87;;;;;;;;;;5002406;28;20089;-52
2022/01/30 14:51:47;;;;;;;8.73;5.00;;;;;;;;;;5002393;28;20045;-53
2022/01/30 14:54:14;;;;;;;7.97;4.85;;;;;;;;;;5002328;28;20491;-55
2022/01/30 14:56:39;;;;;;;5.93;4.32;;;;;;;;;;5002509;28;20547;-53
2022/01/30 14:59:04;;;;;;;7.15;5.00;;;;;;;;;;5002096;28;20026;-51
2022/01/30 15:01:29;;;;;;;6.87;4.80;;;;;;;;;;5001113;28;20080;-54
2022/01/30 15:03:55;;;;;;;6.95;4.95;;;;;;;;;;5001930;28;20026;-52
2022/01/30 15:06:20;;;;;;;7.78;4.10;;;;;;;;;;5001518;28;20050;-51
2022/01/30 15:08:46;;;;;;;7.78;4.60;;;;;;;;;;5001661;28;20033;-52
2022/01/30 15:11:11;;;;;;;8.23;4.30;;;;;;;;;;5001412;28;20407;-51
2022/01/30 15:13:38;;;;;;;6.97;4.30;;;;;;;;;;5002442;28;20687;-52
2022/01/30 15:16:08;;;;;;;6.55;4.32;;;;;;;;;;5002133;28;20608;-53
2022/01/30 15:18:36;;;;;;;6.45;4.30;;;;;;;;;;5004808;28;20279;-52
2022/01/30 15:21:01;;;;;;;6.43;4.25;;;;;;;;;;5005841;28;20034;-54
2022/01/30 15:23:28;;;;;;;6.32;3.72;;;;;;;;;;5005711;28;20040;-55
2022/01/30 15:25:53;;;;;;;6.97;4.32;;;;;;;;;;5005671;28;20837;-52
2022/01/30 15:28:18;;;;;;;7.07;4.43;;;;;;;;;;5005103;28;20073;-53
2022/01/30 15:30:44;;;;;;;7.03;4.87;;;;;;;;;;5005492;28;20698;-52
2022/01/30 15:33:09;;;;;;;6.10;4.32;;;;;;;;;;5005059;28;20029;-53
2022/01/30 15:35:36;;;;;;;6.63;4.07;;;;;;;;;;5005210;28;20109;-53
2022/01/30 15:38:01;;;;;;;6.22;4.20;;;;;;;;;;5005434;28;20419;-53